AR-0222 weather

La Consulta Airport
La Consulta, Mendoza Province, Argentina

Public forecast

Using degrees Celsius for public forecast. Weather courtesy of forecast.io.

Closest aviation weather report (METAR) to La Consulta Airport

Closest report is El Plumerillo Airport, 57.3 nm (106.1 km) NNE. Retrieved 2019/10/23 19:00 UTC (58 minutes ago):

SAME 231900Z 09006KT CAVOK 25/M01 Q1013

Closest aviation forecast (TAF) to La Consulta Airport

Closest forecast is El Plumerillo Airport, 57.3 nm (106.1 km) NNE. Retrieved 2019/10/23 18:00 UTC (2 hours ago):

TAF SAME 231700Z 2318/2418 14005KT CAVOK TX27/2320Z TN14/2410Z